Aérodrome :
LOGIN :

S'inscrire | Disclaimer

   EN    FR    IT 

 










Légende :    VFR   VFR Marginal   IFR   IFR Intensif   IFR Très Intensif
Visi : 
Plafond : 
>= 8 km
>= 3000ft
5 à 8 km
1000 à 3000 ft
1500m à 5 km
500 à 1000 ft
800 à 1500m
200 à 500 ft
< 800m
< 200 ft
Symboles :   Orages  Brouillard  Fortes neiges  Fortes précipitations  Vent > 20 kt
SIGMETs :   Divers  Orages  Givrage  Turbulence  Onde Orograph.  Cendres Volcan.






- Altitude de l'aérodrome : 90 ft
- Code IATA : NTE


LFRS - Nantes

DERNIER METAR :
  • 251900Z AUTO 27010KT 9999 BKN023 OVC034 16/12 Q1024 NOSIG

METARs EXPIRÉS :
  • 251830Z AUTO 28010KT 9999 FEW023 OVC038 16/12 Q1023 NOSIG
  • 251800Z AUTO 26011KT 9999 FEW023 OVC040 17/12 Q1023 NOSIG
  • 251730Z AUTO 27012KT 9999 SCT024 BKN029 OVC041 17/11 Q1023 NOSIG
  • 251700Z AUTO 26010KT 230V290 9999 FEW031 BKN042 18/12 Q1023 NOSIG
  • 251630Z AUTO 27012KT 9999 BKN027 BKN035 18/11 Q1023 NOSIG

TAF TAF LFRS
Valide du 25 à 18h jusqu'au 27 à 00h UTC


251700Z 2518/2624 26012KT 9999 BKN030
BECMG 2604/2606 35005KT
PROB30
TEMPO 2606/2610 BKN014
ATIS : +33 2 40 05 12 74



MET'MAP, la Météo Aéronautique d'un coup d'oeil ! - Copyright ORBIFLY Décembre 2007 - Disclaimer

ORBIFLY MET'MAP TEAM :

Programmation & Développement : Alexandra Zaïnal
Sur une idée originale de : Baudouin d'Aumeries
Soutien technique & logistique : Manuel Goepfert
Assistance : Marc-Olivier Méhu

Contact : metmap@orbifly.com




SOURCES & CREDITS :

   NOAA